Time;durP1;ratioP1;P1;durP2;ratioP2;P2;SDS_P1;SDS_P2;PMS_P1;PMS_P2;Temp;Humidity;BMP_temperature;BMP_pressure;BME280_temperature;BME280_humidity;BME280_pressure;Samples;Min_cycle;Max_cycle;Signal;HPM_P1;HPM_P2
2021/12/31 00:00:26;;;;;;;68.42;34.80;;;;;;;-3.58;84.47;99468.42;1749984;81;21000;-65
2021/12/31 00:02:53;;;;;;;70.60;33.23;;;;;;;-3.55;84.51;99463.12;1747096;81;20893;-66
2021/12/31 00:05:20;;;;;;;68.97;32.73;;;;;;;-3.53;84.46;99465.05;1750276;81;21143;-66
2021/12/31 00:07:47;;;;;;;67.27;31.42;;;;;;;-3.53;84.61;99469.08;1748944;81;21052;-66
2021/12/31 00:10:14;;;;;;;71.40;35.40;;;;;;;-3.48;84.76;99470.57;1748058;81;21116;-64
2021/12/31 00:12:42;;;;;;;65.75;31.17;;;;;;;-3.45;84.72;99472.84;1743119;81;21048;-65
2021/12/31 00:15:09;;;;;;;71.60;33.83;;;;;;;-3.42;84.75;99471.55;1747455;81;21513;-65
2021/12/31 00:17:39;;;;;;;74.60;35.10;;;;;;;-3.37;84.77;99477.59;1747592;81;21041;-63
2021/12/31 00:20:16;;;;;;;67.05;33.35;;;;;;;-3.36;84.67;99480.05;1757202;81;21485;-67
2021/12/31 00:25:20;;;;;;;71.22;34.15;;;;;;;-3.34;84.70;99457.74;1746386;81;21459;-67
2021/12/31 00:27:47;;;;;;;74.17;36.15;;;;;;;-3.37;84.59;99450.64;1743138;81;21008;-66
2021/12/31 00:30:13;;;;;;;64.42;31.87;;;;;;;-3.38;84.72;99458.44;1745858;81;21521;-66
2021/12/31 00:32:41;;;;;;;64.90;31.35;;;;;;;-3.35;84.81;99444.50;1751144;81;20950;-65
2021/12/31 00:35:08;;;;;;;64.55;32.73;;;;;;;-3.34;84.75;99435.35;1746390;81;21082;-66
2021/12/31 00:37:39;;;;;;;65.00;30.97;;;;;;;-3.35;84.75;99433.20;1750001;81;21496;-67
2021/12/31 00:40:09;;;;;;;72.03;34.43;;;;;;;-3.36;84.77;99444.22;1744664;81;21004;-68
2021/12/31 00:42:37;;;;;;;70.87;34.55;;;;;;;-3.32;85.04;99448.08;1746128;81;21787;-67
2021/12/31 00:45:06;;;;;;;66.53;32.38;;;;;;;-3.28;85.08;99449.80;1719269;80;21563;-66
2021/12/31 00:47:33;;;;;;;66.70;33.33;;;;;;;-3.27;85.00;99428.52;1745086;81;21005;-67
2021/12/31 00:49:59;;;;;;;64.00;30.92;;;;;;;-3.27;85.10;99419.91;1750899;81;20978;-65
2021/12/31 00:52:26;;;;;;;68.67;34.33;;;;;;;-3.29;85.04;99417.96;1749307;80;21916;-65
2021/12/31 00:54:52;;;;;;;63.92;32.58;;;;;;;-3.35;85.08;99417.55;1744128;81;21194;-65
2021/12/31 00:57:20;;;;;;;66.20;33.70;;;;;;;-3.36;85.22;99418.06;1743857;81;21014;-66
2021/12/31 00:59:47;;;;;;;68.05;33.60;;;;;;;-3.35;85.39;99415.69;1745872;81;21088;-66
2021/12/31 01:02:16;;;;;;;67.55;34.05;;;;;;;-3.35;85.49;99422.42;1744928;81;21049;-67
2021/12/31 01:04:41;;;;;;;67.47;32.75;;;;;;;-3.32;85.65;99423.82;1748163;81;20949;-63
2021/12/31 01:07:08;;;;;;;66.65;33.25;;;;;;;-3.30;85.67;99427.95;1749197;81;21458;-65
2021/12/31 01:09:35;;;;;;;65.60;31.35;;;;;;;-3.27;85.67;99428.00;1745360;81;21040;-67
2021/12/31 01:12:06;;;;;;;74.87;36.65;;;;;;;-3.26;85.66;99417.53;1743974;81;20941;-65
2021/12/31 01:14:37;;;;;;;69.17;33.80;;;;;;;-3.25;85.72;99412.42;1744695;81;21055;-66
2021/12/31 01:17:08;;;;;;;70.57;35.00;;;;;;;-3.22;85.72;99412.47;1746326;81;21028;-66
2021/12/31 01:19:51;;;;;;;70.05;32.50;;;;;;;-3.21;85.75;99413.59;1749251;80;21130;-67
2021/12/31 01:22:04;;;;;;;71.10;33.33;;;;;;;-3.23;85.66;99400.89;1744163;81;21016;-64
2021/12/31 01:24:32;;;;;;;72.12;35.00;;;;;;;-3.25;85.61;99398.94;1747432;81;20994;-65
2021/12/31 01:26:59;;;;;;;74.35;35.40;;;;;;;-3.27;85.64;99394.82;1747047;81;20989;-67
2021/12/31 01:29:25;;;;;;;75.00;37.70;;;;;;;-3.28;85.81;99389.98;1744206;81;21079;-65
2021/12/31 01:31:54;;;;;;;75.67;35.23;;;;;;;-3.25;86.00;99393.55;1743882;81;21148;-64
2021/12/31 01:34:23;;;;;;;71.50;33.98;;;;;;;-3.20;86.09;99387.45;1746801;81;20988;-66
2021/12/31 01:36:49;;;;;;;83.20;37.65;;;;;;;-3.18;86.04;99387.53;1745609;81;21502;-66
2021/12/31 01:39:15;;;;;;;79.12;37.67;;;;;;;-3.16;85.99;99381.91;1746689;81;21111;-66
2021/12/31 01:41:41;;;;;;;62.70;32.35;;;;;;;-3.15;85.93;99370.58;1744460;81;21071;-66
2021/12/31 01:44:08;;;;;;;76.37;35.05;;;;;;;-3.15;85.95;99366.53;1746078;81;21750;-65
2021/12/31 01:46:40;;;;;;;74.92;34.10;;;;;;;-3.15;85.91;99358.45;1748906;81;20938;-65
2021/12/31 01:49:19;;;;;;;73.50;33.73;;;;;;;-3.18;85.99;99357.88;1749107;80;20992;-66
2021/12/31 01:51:38;;;;;;;77.42;37.83;;;;;;;-3.16;86.03;99356.30;1748546;81;20997;-65
2021/12/31 01:54:06;;;;;;;74.12;39.08;;;;;;;-3.13;86.25;99360.39;1718278;81;21429;-67
2021/12/31 01:56:32;;;;;;;77.47;37.08;;;;;;;-3.08;86.26;99363.21;1710566;83;21190;-61
2021/12/31 01:58:59;;;;;;;83.67;39.67;;;;;;;-3.09;86.02;99361.58;1712139;82;21122;-64
2021/12/31 02:01:26;;;;;;;75.47;36.55;;;;;;;-3.10;86.09;99354.53;1713352;83;21084;-66
2021/12/31 02:03:52;;;;;;;69.62;35.38;;;;;;;-3.11;85.89;99356.42;1713472;83;21079;-63
2021/12/31 02:06:19;;;;;;;70.15;34.85;;;;;;;-3.14;85.94;99352.84;1711419;83;21076;-66
2021/12/31 02:08:46;;;;;;;73.33;33.95;;;;;;;-3.14;85.95;99351.50;1713268;83;21426;-65
2021/12/31 02:11:16;;;;;;;78.00;35.78;;;;;;;-3.16;85.95;99342.81;1710247;83;20945;-64
2021/12/31 02:13:42;;;;;;;78.57;35.92;;;;;;;-3.18;85.94;99341.70;1710558;83;21013;-65
2021/12/31 02:16:09;;;;;;;71.22;34.58;;;;;;;-3.19;85.85;99340.05;1710194;83;21016;-65
2021/12/31 02:18:38;;;;;;;78.02;36.25;;;;;;;-3.22;85.90;99335.64;1711573;83;20991;-65
2021/12/31 02:21:08;;;;;;;74.40;35.10;;;;;;;-3.28;85.95;99340.63;1712132;83;21821;-66
2021/12/31 02:23:42;;;;;;;73.78;32.85;;;;;;;-3.29;86.24;99329.02;1711993;82;21000;-63
2021/12/31 02:26:01;;;;;;;74.90;35.10;;;;;;;-3.26;86.39;99331.79;1707938;83;21012;-65
2021/12/31 02:28:28;;;;;;;67.97;33.60;;;;;;;-3.25;86.42;99336.95;1711806;83;21040;-63
2021/12/31 02:31:00;;;;;;;76.95;36.93;;;;;;;-3.20;86.47;99333.55;1711225;83;21064;-65
2021/12/31 02:33:23;;;;;;;67.50;33.25;;;;;;;-3.17;86.46;99334.42;1710993;83;21171;-66
2021/12/31 02:35:50;;;;;;;73.37;33.73;;;;;;;-3.18;86.32;99329.58;1711783;83;20974;-66
2021/12/31 02:38:17;;;;;;;70.83;32.93;;;;;;;-3.22;86.33;99332.44;1712535;83;21016;-67
2021/12/31 02:40:45;;;;;;;72.70;36.42;;;;;;;-3.24;86.42;99331.84;1713404;83;21012;-64
2021/12/31 02:43:11;;;;;;;71.97;34.58;;;;;;;-3.23;86.60;99326.76;1711645;83;21512;-66
2021/12/31 02:45:40;;;;;;;69.40;34.18;;;;;;;-3.20;86.71;99322.24;1713236;83;21126;-66
2021/12/31 02:48:06;;;;;;;66.80;32.80;;;;;;;-3.14;86.86;99325.89;1713020;83;21063;-66
2021/12/31 02:50:39;;;;;;;79.12;36.08;;;;;;;-3.11;86.83;99322.72;1712724;83;21178;-65
2021/12/31 02:53:12;;;;;;;72.90;33.73;;;;;;;-3.06;86.97;99324.70;1712268;83;21080;-66
2021/12/31 02:55:41;;;;;;;72.22;35.92;;;;;;;-3.02;86.96;99323.72;1712463;83;21009;-64
2021/12/31 02:58:10;;;;;;;67.90;33.38;;;;;;;-2.99;86.93;99329.47;1711763;83;21084;-64
2021/12/31 03:00:40;;;;;;;75.15;35.05;;;;;;;-2.96;87.00;99326.30;1712077;82;21072;-66
2021/12/31 03:03:07;;;;;;;72.40;35.68;;;;;;;-2.91;86.97;99324.75;1712645;83;20976;-66
2021/12/31 03:05:34;;;;;;;71.40;33.73;;;;;;;-2.91;86.90;99320.19;1712123;83;21430;-64
2021/12/31 03:08:00;;;;;;;67.05;33.42;;;;;;;-2.89;86.97;99323.47;1711250;83;21001;-62
2021/12/31 03:10:29;;;;;;;76.12;35.10;;;;;;;-2.87;87.11;99325.41;1711941;83;21470;-65
2021/12/31 03:12:56;;;;;;;74.75;36.53;;;;;;;-2.84;87.14;99324.11;1713207;83;20948;-65
2021/12/31 03:15:25;;;;;;;62.78;30.85;;;;;;;-2.79;87.32;99320.70;1711817;83;21013;-65
2021/12/31 03:17:51;;;;;;;74.20;35.48;;;;;;;-2.77;87.30;99317.24;1712148;83;21502;-65
2021/12/31 03:20:26;;;;;;;70.22;35.92;;;;;;;-2.77;87.33;99323.47;1713554;83;21055;-63
2021/12/31 03:22:46;;;;;;;76.85;36.15;;;;;;;-2.74;87.53;99327.03;1710586;83;21093;-66
2021/12/31 03:25:12;;;;;;;79.20;37.48;;;;;;;-2.71;87.57;99322.52;1714447;83;21521;-66
2021/12/31 03:27:40;;;;;;;83.62;36.23;;;;;;;-2.70;87.68;99321.47;1710198;83;20944;-62
2021/12/31 03:30:10;;;;;;;78.45;37.38;;;;;;;-2.71;87.77;99313.06;1714335;83;21028;-66
2021/12/31 03:32:40;;;;;;;83.05;38.08;;;;;;;-2.67;87.92;99319.34;1712558;83;20968;-66
2021/12/31 03:35:07;;;;;;;83.12;38.75;;;;;;;-2.65;88.01;99318.58;1711451;83;22466;-67
2021/12/31 03:37:35;;;;;;;81.65;36.65;;;;;;;-2.63;88.10;99312.42;1711191;83;21005;-66
2021/12/31 03:40:04;;;;;;;73.92;36.53;;;;;;;-2.63;88.18;99302.97;1712075;83;20948;-65
2021/12/31 03:42:32;;;;;;;70.70;35.83;;;;;;;-2.62;88.27;99304.08;1711377;83;21076;-64
2021/12/31 03:44:58;;;;;;;65.47;33.90;;;;;;;-2.63;88.31;99299.76;1712720;82;21536;-65
2021/12/31 03:47:24;;;;;;;69.45;35.50;;;;;;;-2.62;88.41;99295.16;1711858;83;21190;-66
2021/12/31 03:49:51;;;;;;;75.92;34.60;;;;;;;-2.62;88.53;99291.11;1711823;83;21021;-66
2021/12/31 03:52:19;;;;;;;71.22;33.98;;;;;;;-2.59;88.71;99300.91;1710899;83;20948;-62
2021/12/31 03:54:45;;;;;;;72.90;36.42;;;;;;;-2.58;88.74;99292.29;1712568;83;21064;-64
2021/12/31 03:57:12;;;;;;;82.20;37.38;;;;;;;-2.57;88.87;99293.40;1713137;83;21426;-66
2021/12/31 03:59:38;;;;;;;75.80;36.83;;;;;;;-2.54;88.97;99296.14;1710820;82;21072;-64
2021/12/31 04:02:04;;;;;;;77.35;36.85;;;;;;;-2.54;89.02;99297.48;1712661;83;20914;-66
2021/12/31 04:04:30;;;;;;;70.62;35.25;;;;;;;-2.51;89.10;99292.16;1712643;83;21515;-65
2021/12/31 04:06:57;;;;;;;68.15;34.00;;;;;;;-2.50;89.21;99286.52;1714414;83;21009;-65
2021/12/31 04:09:24;;;;;;;78.67;36.95;;;;;;;-2.48;89.35;99285.75;1714612;83;21425;-66
2021/12/31 04:11:51;;;;;;;67.53;34.35;;;;;;;-2.45;89.42;99288.49;1713054;83;21126;-65
2021/12/31 04:14:23;;;;;;;70.75;34.00;;;;;;;-2.45;89.54;99285.27;1714257;83;21710;-66
2021/12/31 04:16:49;;;;;;;75.05;35.95;;;;;;;-2.44;89.64;99287.45;1713444;82;21143;-64
2021/12/31 04:19:17;;;;;;;71.47;34.55;;;;;;;-2.42;89.77;99294.75;1713288;83;21090;-64
2021/12/31 04:21:44;;;;;;;72.27;34.50;;;;;;;-2.41;89.87;99291.02;1712752;83;20896;-65
2021/12/31 04:24:16;;;;;;;76.53;36.28;;;;;;;-2.38;90.02;99285.66;1712143;83;21828;-67
2021/12/31 04:26:43;;;;;;;72.35;35.92;;;;;;;-2.36;90.16;99279.49;1687815;83;21013;-65
2021/12/31 04:29:11;;;;;;;77.65;35.90;;;;;;;-2.35;90.20;99277.07;1713440;83;22537;-67
2021/12/31 04:31:37;;;;;;;69.90;34.23;;;;;;;-2.34;90.35;99274.68;1713292;83;20948;-66
2021/12/31 04:34:06;;;;;;;64.45;33.45;;;;;;;-2.33;90.44;99270.39;1711911;83;21100;-67
2021/12/31 04:36:32;;;;;;;70.80;34.00;;;;;;;-2.30;90.52;99274.47;1711988;83;21052;-66
2021/12/31 04:39:00;;;;;;;72.15;35.83;;;;;;;-2.29;90.58;99265.33;1712143;83;21036;-65
2021/12/31 04:41:27;;;;;;;71.87;35.55;;;;;;;-2.28;90.66;99264.26;1712274;83;20928;-66
2021/12/31 04:43:57;;;;;;;65.47;33.13;;;;;;;-2.25;90.78;99262.42;1711756;83;20988;-68
2021/12/31 04:46:23;;;;;;;70.45;32.63;;;;;;;-2.24;90.86;99261.37;1713137;83;20927;-68
2021/12/31 04:48:50;;;;;;;73.92;35.65;;;;;;;-2.23;90.93;99259.48;1711444;83;21979;-67
2021/12/31 04:51:16;;;;;;;72.72;33.40;;;;;;;-2.22;91.00;99251.69;1713000;83;21023;-67
2021/12/31 04:53:42;;;;;;;73.83;34.80;;;;;;;-2.22;91.03;99246.28;1713152;83;20976;-63
2021/12/31 04:56:08;;;;;;;70.30;34.58;;;;;;;-2.20;91.14;99246.31;1712173;83;21059;-66
2021/12/31 04:58:35;;;;;;;72.12;34.92;;;;;;;-2.17;91.23;99248.25;1714079;83;20961;-66
2021/12/31 05:01:01;;;;;;;66.07;34.53;;;;;;;-2.14;91.24;99246.41;1712224;82;21269;-65
2021/12/31 05:03:28;;;;;;;69.47;33.38;;;;;;;-2.13;91.35;99249.42;1713214;83;21106;-65
2021/12/31 05:05:54;;;;;;;67.17;33.13;;;;;;;-2.14;91.34;99236.44;1710514;83;21541;-66
2021/12/31 05:08:21;;;;;;;63.25;32.33;;;;;;;-2.15;91.39;99241.53;1710961;83;21036;-67
2021/12/31 05:10:50;;;;;;;67.92;33.42;;;;;;;-2.15;91.43;99235.34;1685935;83;20958;-67
2021/12/31 05:13:18;;;;;;;68.55;32.63;;;;;;;-2.15;91.54;99244.23;1711591;83;21033;-67
2021/12/31 05:15:46;;;;;;;71.57;33.73;;;;;;;-2.13;91.68;99244.02;1712932;83;21450;-66
2021/12/31 05:18:13;;;;;;;75.78;36.65;;;;;;;-2.10;91.79;99249.73;1713075;83;21437;-66
2021/12/31 05:20:43;;;;;;;68.75;32.65;;;;;;;-2.06;91.89;99253.32;1712431;83;20969;-67
2021/12/31 05:23:11;;;;;;;74.03;33.75;;;;;;;-2.05;91.89;99244.98;1712330;83;21048;-67
2021/12/31 05:25:39;;;;;;;70.92;34.08;;;;;;;-2.05;91.85;99243.62;1712076;83;21087;-67
2021/12/31 05:28:05;;;;;;;70.78;36.05;;;;;;;-2.03;91.98;99237.42;1711855;83;21075;-67
2021/12/31 05:30:31;;;;;;;70.08;33.33;;;;;;;-2.00;92.08;99234.78;1710161;83;21505;-65
2021/12/31 05:32:58;;;;;;;72.47;34.83;;;;;;;-1.99;92.08;99226.95;1711938;83;21005;-64
2021/12/31 05:35:24;;;;;;;73.75;34.35;;;;;;;-1.99;92.12;99230.48;1712121;83;20961;-65
2021/12/31 05:37:51;;;;;;;73.65;33.35;;;;;;;-1.98;92.23;99219.96;1714397;83;21429;-67
2021/12/31 05:40:18;;;;;;;72.92;32.45;;;;;;;-1.96;92.22;99218.36;1711802;83;20904;-67
2021/12/31 05:42:44;;;;;;;68.92;32.80;;;;;;;-1.99;92.30;99222.39;1712038;83;20984;-65
2021/12/31 05:45:14;;;;;;;75.08;34.30;;;;;;;-1.99;92.37;99226.44;1712037;83;20982;-67
2021/12/31 05:47:41;;;;;;;72.08;32.93;;;;;;;-1.97;92.44;99225.67;1712562;83;20993;-65
2021/12/31 05:50:18;;;;;;;78.37;38.13;;;;;;;-1.94;92.58;99224.90;1709524;83;21221;-67
2021/12/31 05:52:36;;;;;;;72.35;35.48;;;;;;;-1.93;92.71;99224.66;1685993;83;21083;-66
2021/12/31 05:55:05;;;;;;;67.00;31.77;;;;;;;-1.90;92.83;99221.46;1712099;83;21107;-68
2021/12/31 05:57:34;;;;;;;77.00;34.03;;;;;;;-1.89;92.88;99222.25;1713128;83;20937;-66
2021/12/31 06:00:00;;;;;;;74.85;34.53;;;;;;;-1.88;92.92;99233.37;1713018;82;20960;-67
2021/12/31 06:02:27;;;;;;;68.40;32.95;;;;;;;-1.88;92.92;99234.20;1714622;83;21718;-66
2021/12/31 06:04:55;;;;;;;78.45;35.45;;;;;;;-1.87;93.04;99232.30;1712339;83;21457;-66
2021/12/31 06:07:21;;;;;;;71.35;34.50;;;;;;;-1.86;93.17;99238.00;1711754;83;21055;-67
2021/12/31 06:09:48;;;;;;;75.45;34.50;;;;;;;-1.85;93.22;99239.63;1713907;83;21032;-65
2021/12/31 06:12:15;;;;;;;81.22;37.70;;;;;;;-1.84;93.29;99241.25;1714190;83;21489;-65
2021/12/31 06:14:43;;;;;;;71.12;32.33;;;;;;;-1.82;93.33;99246.41;1713440;83;21131;-65
2021/12/31 06:17:11;;;;;;;72.08;33.00;;;;;;;-1.81;93.41;99239.96;1714456;83;21111;-66
2021/12/31 06:19:39;;;;;;;72.67;35.00;;;;;;;-1.81;93.45;99238.09;1711736;83;20960;-63
2021/12/31 06:22:05;;;;;;;77.05;36.83;;;;;;;-1.80;93.46;99237.02;1710846;83;20941;-66
2021/12/31 06:24:35;;;;;;;73.92;34.33;;;;;;;-1.80;93.50;99243.77;1710925;83;21446;-64
2021/12/31 06:27:03;;;;;;;83.42;39.05;;;;;;;-1.78;93.61;99240.82;1711635;83;21242;-66
2021/12/31 06:29:31;;;;;;;74.27;36.93;;;;;;;-1.76;93.76;99252.20;1710892;83;20972;-65
2021/12/31 06:31:59;;;;;;;76.12;35.35;;;;;;;-1.74;93.86;99248.73;1712817;83;21067;-65
2021/12/31 06:34:25;;;;;;;78.57;37.53;;;;;;;-1.73;93.96;99261.17;1712341;83;21145;-67
2021/12/31 06:36:52;;;;;;;73.50;36.10;;;;;;;-1.72;94.08;99260.92;1687625;83;20980;-67
2021/12/31 06:39:18;;;;;;;75.57;36.48;;;;;;;-1.67;94.22;99267.48;1713454;83;21737;-65
2021/12/31 06:41:44;;;;;;;81.70;37.60;;;;;;;-1.67;94.26;99262.88;1713367;83;20984;-66
2021/12/31 06:44:14;;;;;;;80.00;38.40;;;;;;;-1.66;94.31;99260.48;1710675;83;21086;-65
2021/12/31 06:46:40;;;;;;;76.80;37.20;;;;;;;-1.64;94.36;99256.19;1712240;83;20988;-65
2021/12/31 06:49:06;;;;;;;75.75;35.55;;;;;;;-1.63;94.40;99247.00;1710485;83;21504;-67
2021/12/31 06:51:34;;;;;;;105.85;40.30;;;;;;;-1.60;94.55;99250.56;1713059;83;21156;-67
2021/12/31 06:54:02;;;;;;;85.67;37.25;;;;;;;-1.59;94.56;99250.86;1711895;83;21091;-66
2021/12/31 06:56:33;;;;;;;88.90;41.18;;;;;;;-1.58;94.66;99249.78;1713067;83;21012;-66
2021/12/31 06:59:00;;;;;;;86.57;36.77;;;;;;;-1.57;94.78;99250.09;1711879;82;21265;-65
2021/12/31 07:01:26;;;;;;;95.57;40.83;;;;;;;-1.54;94.93;99246.89;1714438;83;21119;-65
2021/12/31 07:03:54;;;;;;;88.78;40.92;;;;;;;-1.51;95.07;99250.45;1711882;83;21537;-65
2021/12/31 07:06:21;;;;;;;92.45;41.35;;;;;;;-1.48;95.22;99251.30;1710777;83;21024;-67
2021/12/31 07:08:48;;;;;;;90.67;41.10;;;;;;;-1.45;95.28;99254.59;1712915;83;21493;-65
2021/12/31 07:11:17;;;;;;;94.70;40.75;;;;;;;-1.40;95.42;99257.37;1709561;83;21000;-64
2021/12/31 07:13:44;;;;;;;90.32;40.70;;;;;;;-1.38;95.50;99248.48;1711936;83;20954;-65
2021/12/31 07:16:11;;;;;;;90.07;38.95;;;;;;;-1.36;95.54;99248.51;1712116;83;21496;-65
2021/12/31 07:18:37;;;;;;;89.30;42.85;;;;;;;-1.33;95.60;99246.38;1713126;83;20952;-67
2021/12/31 07:21:04;;;;;;;95.20;43.23;;;;;;;-1.33;95.62;99240.42;1714438;83;21051;-66
2021/12/31 07:23:31;;;;;;;103.27;46.02;;;;;;;-1.32;95.72;99242.08;1711827;83;20964;-64
2021/12/31 07:25:59;;;;;;;113.47;50.48;;;;;;;-1.31;95.80;99241.55;1712116;83;20916;-66
2021/12/31 07:28:25;;;;;;;108.22;48.13;;;;;;;-1.27;95.97;99244.86;1686885;83;21611;-67
2021/12/31 07:30:52;;;;;;;93.47;41.45;;;;;;;-1.24;96.06;99245.71;1712711;83;20976;-66
2021/12/31 07:33:21;;;;;;;93.22;42.33;;;;;;;-1.20;96.12;99244.69;1714498;83;21013;-67
2021/12/31 07:35:48;;;;;;;95.35;40.23;;;;;;;-1.18;96.23;99247.14;1713465;83;20953;-64
2021/12/31 07:38:20;;;;;;;104.03;42.00;;;;;;;-1.15;96.27;99250.69;1710712;83;21014;-66
2021/12/31 07:40:47;;;;;;;93.33;40.40;;;;;;;-1.12;96.37;99249.66;1711697;83;21576;-67
2021/12/31 07:43:14;;;;;;;90.83;41.28;;;;;;;-1.09;96.37;99255.09;1711299;83;21000;-64
2021/12/31 07:45:42;;;;;;;86.78;39.00;;;;;;;-1.09;96.34;99255.09;1711478;83;20988;-67
2021/12/31 07:48:08;;;;;;;95.53;40.75;;;;;;;-1.07;96.41;99248.91;1711155;83;21517;-67
2021/12/31 07:50:36;;;;;;;98.10;41.20;;;;;;;-1.04;96.52;99246.26;1711278;83;20916;-67
2021/12/31 07:53:06;;;;;;;84.75;38.15;;;;;;;-1.02;96.68;99239.52;1714321;83;21128;-68
2021/12/31 07:55:34;;;;;;;91.30;38.50;;;;;;;-0.99;96.73;99241.72;1711769;83;21060;-66
2021/12/31 07:58:00;;;;;;;97.17;40.17;;;;;;;-0.95;96.81;99239.33;1713047;83;21313;-68
2021/12/31 08:00:27;;;;;;;94.58;38.10;;;;;;;-0.93;96.85;99237.20;1711159;82;20979;-68
2021/12/31 08:02:55;;;;;;;91.78;41.00;;;;;;;-0.90;96.92;99234.52;1713625;83;21643;-65
2021/12/31 08:05:24;;;;;;;104.23;41.25;;;;;;;-0.87;96.98;99227.28;1710314;83;21216;-67
2021/12/31 08:07:53;;;;;;;95.00;40.33;;;;;;;-0.84;97.05;99236.23;1713051;83;20981;-67
2021/12/31 08:10:19;;;;;;;97.53;41.08;;;;;;;-0.81;97.20;99238.44;1712590;83;20921;-65
2021/12/31 08:12:46;;;;;;;87.33;38.85;;;;;;;-0.76;97.28;99242.56;1711151;83;21095;-67
2021/12/31 08:15:14;;;;;;;102.00;41.95;;;;;;;-0.73;97.30;99243.93;1710451;83;20938;-66
2021/12/31 08:17:42;;;;;;;117.17;49.67;;;;;;;-0.71;97.36;99234.20;1714660;82;20965;-66
2021/12/31 08:20:10;;;;;;;97.90;42.10;;;;;;;-0.68;97.39;99236.44;1710993;83;21063;-65
2021/12/31 08:22:37;;;;;;;101.50;46.50;;;;;;;-0.65;97.48;99238.63;1711610;83;21110;-66
2021/12/31 08:25:05;;;;;;;103.80;42.95;;;;;;;-0.62;97.57;99234.06;1710232;83;21043;-65
2021/12/31 08:27:32;;;;;;;115.85;48.13;;;;;;;-0.60;97.64;99226.52;1711496;83;21025;-66
2021/12/31 08:30:01;;;;;;;111.90;47.08;;;;;;;-0.58;97.66;99221.64;1711840;83;21465;-66
2021/12/31 08:32:32;;;;;;;121.77;55.25;;;;;;;-0.57;97.71;99216.53;1713059;83;20913;-67
2021/12/31 08:34:59;;;;;;;114.77;49.25;;;;;;;-0.55;97.70;99217.10;1711381;82;21024;-68
2021/12/31 08:37:25;;;;;;;118.93;47.10;;;;;;;-0.52;97.83;99219.83;1710376;83;21391;-66
2021/12/31 08:39:57;;;;;;;107.45;45.12;;;;;;;-0.51;97.97;99218.21;1714487;83;21124;-66
2021/12/31 08:42:25;;;;;;;106.20;45.60;;;;;;;-0.45;98.11;99223.16;1714653;83;21140;-67
2021/12/31 08:44:52;;;;;;;101.97;42.45;;;;;;;-0.42;98.18;99221.81;1705863;83;21025;-64
2021/12/31 08:47:18;;;;;;;95.00;41.63;;;;;;;-0.38;98.34;99225.67;1684850;83;21461;-65
2021/12/31 08:49:45;;;;;;;101.62;40.98;;;;;;;-0.34;98.45;99227.33;1712274;83;21524;-66
2021/12/31 08:52:13;;;;;;;93.12;40.52;;;;;;;-0.31;98.54;99233.06;1707353;83;20965;-64
2021/12/31 08:54:40;;;;;;;101.38;41.25;;;;;;;-0.28;98.56;99236.61;1712220;83;21465;-67
2021/12/31 08:57:08;;;;;;;107.67;44.10;;;;;;;-0.25;98.66;99232.56;1714286;83;20999;-69
2021/12/31 08:59:35;;;;;;;101.47;40.70;;;;;;;-0.21;98.77;99227.45;1713415;82;21015;-66
2021/12/31 09:02:02;;;;;;;112.35;47.73;;;;;;;-0.17;98.85;99225.33;1711694;83;21434;-66
2021/12/31 09:04:29;;;;;;;99.90;42.90;;;;;;;-0.13;99.01;99227.82;1712358;83;20909;-67
2021/12/31 09:06:58;;;;;;;110.10;42.78;;;;;;;-0.08;99.13;99224.34;1711528;83;21975;-67
2021/12/31 09:09:25;;;;;;;100.97;42.15;;;;;;;-0.04;99.21;99221.41;1713585;83;21078;-67
2021/12/31 09:11:51;;;;;;;98.90;41.37;;;;;;;0.01;99.26;99219.27;1713066;83;21505;-67
2021/12/31 09:14:19;;;;;;;99.10;40.52;;;;;;;0.03;99.24;99221.73;1714404;83;20981;-65
2021/12/31 09:16:47;;;;;;;98.75;39.53;;;;;;;0.06;99.25;99223.91;1713018;83;21111;-68
2021/12/31 09:19:14;;;;;;;102.45;40.00;;;;;;;0.08;99.23;99216.35;1714356;83;21126;-63
2021/12/31 09:21:41;;;;;;;99.20;39.63;;;;;;;0.07;99.21;99218.23;1714304;83;21425;-67
2021/12/31 09:24:09;;;;;;;97.40;40.85;;;;;;;0.08;99.22;99219.06;1713450;83;21060;-66
2021/12/31 09:26:37;;;;;;;100.20;39.95;;;;;;;0.08;99.23;99219.06;1711937;83;21496;-69
2021/12/31 09:29:03;;;;;;;111.05;44.08;;;;;;;0.07;99.26;99217.44;1711702;83;20965;-68
2021/12/31 09:31:31;;;;;;;107.15;44.00;;;;;;;0.07;99.30;99212.02;1713053;83;20956;-65
2021/12/31 09:33:57;;;;;;;93.97;39.85;;;;;;;0.07;99.38;99203.33;1711845;83;21004;-66
2021/12/31 09:36:24;;;;;;;96.45;42.27;;;;;;;0.08;99.54;99204.16;1712118;83;21544;-68
2021/12/31 09:38:51;;;;;;;103.22;42.38;;;;;;;0.09;99.67;99203.07;1710885;83;20980;-66
2021/12/31 09:41:19;;;;;;;105.92;43.28;;;;;;;0.10;99.79;99203.38;1714616;83;21039;-64
2021/12/31 09:43:50;;;;;;;101.12;41.58;;;;;;;0.11;99.90;99203.64;1713456;83;21525;-68
2021/12/31 09:46:18;;;;;;;97.17;39.20;;;;;;;0.13;100.00;99202.85;1713169;83;21048;-68
2021/12/31 09:48:45;;;;;;;109.42;43.63;;;;;;;0.14;100.00;99207.73;1710924;83;21028;-67
2021/12/31 09:51:11;;;;;;;106.22;42.17;;;;;;;0.14;100.00;99201.77;1710783;83;21063;-67
2021/12/31 09:53:37;;;;;;;99.83;41.08;;;;;;;0.16;100.00;99198.27;1712118;83;21547;-68
2021/12/31 09:56:04;;;;;;;96.02;40.83;;;;;;;0.19;100.00;99202.33;1712900;83;21521;-67
2021/12/31 09:58:33;;;;;;;109.57;45.40;;;;;;;0.21;100.00;99194.23;1712296;82;21581;-68
2021/12/31 10:01:01;;;;;;;96.08;39.83;;;;;;;0.24;100.00;99192.36;1712963;83;21009;-65
2021/12/31 10:03:33;;;;;;;104.92;41.18;;;;;;;0.28;100.00;99183.70;1711966;83;21023;-66
2021/12/31 10:06:10;;;;;;;102.55;41.73;;;;;;;0.31;100.00;99188.08;1713238;83;21008;-67
2021/12/31 10:08:43;;;;;;;110.03;42.17;;;;;;;0.34;100.00;99189.47;1712269;83;21137;-67
2021/12/31 10:11:20;;;;;;;101.92;42.53;;;;;;;0.38;100.00;99185.14;1713277;83;20948;-68
2021/12/31 10:13:59;;;;;;;101.65;41.37;;;;;;;0.44;100.00;99194.14;1710531;83;21063;-66
2021/12/31 10:16:42;;;;;;;101.92;38.78;;;;;;;0.46;100.00;99190.08;1711763;83;21012;-66
2021/12/31 10:19:18;;;;;;;99.92;40.67;;;;;;;0.50;100.00;99190.90;1710643;83;21004;-65
2021/12/31 10:21:51;;;;;;;98.72;39.85;;;;;;;0.51;100.00;99184.42;1711788;83;21113;-66
2021/12/31 10:24:35;;;;;;;107.43;41.50;;;;;;;0.52;100.00;99181.45;1710579;83;21617;-64
2021/12/31 10:27:14;;;;;;;108.35;41.13;;;;;;;0.55;100.00;99180.09;1712790;83;21020;-67
2021/12/31 10:30:04;;;;;;;100.67;38.78;;;;;;;0.57;100.00;99173.34;1711710;83;21039;-65
2021/12/31 10:32:34;;;;;;;104.53;43.65;;;;;;;0.61;100.00;99170.92;1709146;83;21017;-66
2021/12/31 10:35:18;;;;;;;126.38;47.15;;;;;;;0.65;100.00;99167.95;1712084;83;21068;-65
2021/12/31 10:37:57;;;;;;;107.67;43.28;;;;;;;0.68;100.00;99170.13;1713981;83;21559;-67
2021/12/31 10:40:40;;;;;;;112.17;41.75;;;;;;;0.70;100.00;99167.98;1714419;83;20952;-67
2021/12/31 10:43:21;;;;;;;;;;;;;;;0.72;100.00;99164.47;1715145;82;21052;-65
2021/12/31 10:46:04;;;;;;;121.42;47.90;;;;;;;0.75;100.00;99161.77;1710661;83;20433;-62
2021/12/31 10:48:46;;;;;;;131.70;47.00;;;;;;;0.78;100.00;99163.15;1714511;83;21113;-68
2021/12/31 10:51:16;;;;;;;127.82;45.80;;;;;;;0.81;100.00;99169.39;1710620;83;20992;-68
2021/12/31 10:53:50;;;;;;;98.70;40.12;;;;;;;0.83;100.00;99167.24;1712268;83;21409;-67
2021/12/31 10:56:14;;;;;;;97.53;41.55;;;;;;;0.83;100.00;99157.22;1710532;83;21178;-67
2021/12/31 10:58:46;;;;;;;100.87;39.65;;;;;;;0.85;100.00;99158.30;1711556;82;21528;-66
2021/12/31 11:01:15;;;;;;;;;;;;;;;0.85;100.00;99164.53;1715273;83;21125;-68
2021/12/31 11:03:42;;;;;;;90.87;38.42;;;;;;;0.86;100.00;99164.00;1711284;83;20456;-67
2021/12/31 11:06:12;;;;;;;92.37;37.80;;;;;;;0.86;100.00;99169.42;1712995;83;21027;-68
2021/12/31 11:08:44;;;;;;;84.13;36.70;;;;;;;0.87;100.00;99160.75;1710792;83;20944;-67
2021/12/31 11:11:13;;;;;;;98.33;38.28;;;;;;;0.89;100.00;99157.24;1710374;83;21120;-68
2021/12/31 11:13:39;;;;;;;101.22;39.65;;;;;;;0.90;100.00;99156.97;1685997;83;21878;-67
2021/12/31 11:16:09;;;;;;;97.22;39.18;;;;;;;0.92;100.00;99151.28;1711016;83;21051;-68
2021/12/31 11:18:36;;;;;;;78.22;34.75;;;;;;;0.95;100.00;99154.28;1713297;83;20964;-67
2021/12/31 11:21:03;;;;;;;78.28;36.00;;;;;;;0.98;100.00;99151.56;1711109;83;21013;-67
2021/12/31 11:23:33;;;;;;;82.72;35.33;;;;;;;1.02;100.00;99149.14;1712851;83;21456;-68